Flight Track Log - Related Links

Times and Time Zones

All times are in EDT time to prevent confusion due to time zone crossing. See the CSN3239 flight status page for this flight to view local times or setup timezone preferences in your user account.

Time Position Orientation Groundspeed Altitude Reporting Facility
EDT Latitude Longitude Course Direction KTS MPH feet Rate Location/Type
Tue 08:06:00 PM 25.1531 110.1379 126° Southeast  Level Estimated
Tue 08:07:00 PM 25.0881 110.2365 126° Southeast  Level Estimated
Tue 08:08:00 PM 25.0230 110.3351 126° Southeast  Level Estimated
Tue 08:09:00 PM 24.9578 110.4335 126° Southeast  Level Estimated
Tue 08:10:00 PM 24.8926 110.5318 126° Southeast  Level Estimated
Tue 08:11:00 PM 24.8273 110.6300 126° Southeast  Level Estimated
Tue 08:12:00 PM 24.7619 110.7281 126° Southeast  Level Estimated
Tue 08:12:47 PM 23.9090 111.5950 126° Southeast 457 526 24,600  Level FlightAware ADS-B
Tue 08:13:00 PM 24.6965 110.8261 126° Southeast  Level Estimated
Tue 08:13:43 PM 23.8240 111.6850 136° Southeast 458 527 24,600  Level FlightAware ADS-B
Tue 08:14:20 PM 23.7770 111.7360 135° Southeast 458 527 24,600  Level FlightAware ADS-B
Tue 08:14:56 PM 23.7310 111.7860 135° Southeast 458 527 24,600  Level FlightAware ADS-B
Tue 08:15:44 PM 23.6700 111.8530 135° Southeast 458 527 24,600  Level FlightAware ADS-B
Tue 08:16:20 PM 23.6240 111.9030 135° Southeast 458 527 24,600  Level FlightAware ADS-B
Tue 08:16:56 PM 23.5780 111.9530 135° Southeast 458 527 24,600  Level FlightAware ADS-B
Tue 08:17:52 PM 23.4470 112.0880 137° Southeast 453 521 24,600  Level FlightAware ADS-B
Tue 08:18:45 PM 23.3610 112.1780 136° Southeast 451 519 24,600  Level FlightAware ADS-B
Tue 08:19:24 PM 23.3120 112.2310 135° Southeast 451 519 24,600 -1,747 Level FlightAware ADS-B
Tue 08:20:04 PM 23.2410 112.3060 136° Southeast 443 510 22,300 -2,651 Descending FlightAware ADS-B
Tue 08:20:50 PM 23.1770 112.3750 135° Southeast 428 493 20,800 -1,929 Descending FlightAware ADS-B
Tue 08:21:28 PM 23.1220 112.4310 137° Southeast 420 483 19,600 -1,063 Descending FlightAware ADS-B
Tue 08:22:26 PM 23.0590 112.5210 127° Southeast 416 479 19,100 -1,011 Descending FlightAware ADS-B
Tue 08:22:57 PM 23.0630 112.5940 87° East 406 467 18,100 -1,342 Descending FlightAware ADS-B
Tue 08:23:42 PM 23.0570 112.6880 94° East 405 466 17,400 -1,011 Descending FlightAware ADS-B
Tue 08:24:26 PM 23.0510 112.7760 94° East 387 445 16,600 -1,116 Descending FlightAware ADS-B
Tue 08:25:08 PM 23.0450 112.8500 95° East 356 410 15,800 -1,000 Descending FlightAware ADS-B
Tue 08:25:44 PM 23.0410 112.9150 94° East 327 376 15,300 -1,000 Descending FlightAware ADS-B
Tue 08:26:26 PM 23.0360 112.9810 95° East 312 359 14,500 -1,116 Descending FlightAware ADS-B
Tue 08:27:10 PM 23.0320 113.0500 94° East 307 353 13,700 -1,116 Descending FlightAware ADS-B
Tue 08:27:52 PM 23.0270 113.1150 95° East 308 354 12,900 -1,098 Descending FlightAware ADS-B
Tue 08:28:32 PM 23.0210 113.1780 96° East 305 351 12,200 -1,038 Descending FlightAware ADS-B
Tue 08:28:44 PM 23.0160 113.1930 110° East 299 344 12,000 -889 Descending FlightAware ADS-B
Tue 08:28:59 PM 23.0030 113.2080 133° Southeast 285 328 11,800 -375 Descending FlightAware ADS-B
Tue 08:29:16 PM 22.9830 113.2180 155° Southeast 270 311 11,800  Level FlightAware ADS-B
Tue 08:29:57 PM 22.9380 113.2370 159° South 248 285 11,800 -468 Level FlightAware ADS-B
Tue 08:30:33 PM 22.8990 113.2540 158° South 250 288 11,200 -1,421 Descending FlightAware ADS-B
Tue 08:31:13 PM 22.8550 113.2730 158° South 259 298 10,000 -2,029 Descending FlightAware ADS-B
Tue 08:31:41 PM 22.8210 113.2880 158° South 280 322 8,900 -1,821 Descending FlightAware ADS-B
Tue 08:32:09 PM 22.7880 113.3020 159° South 274 315 8,300 -875 Descending FlightAware ADS-B
Tue 08:32:29 PM 22.7640 113.3120 159° South 260 299 8,200 -375 Descending FlightAware ADS-B
Tue 08:32:57 PM 22.7350 113.3250 158° South 241 277 8,000 -273 Descending FlightAware ADS-B
Tue 08:33:13 PM 22.7180 113.3330 157° South 229 264 8,000 136 Level FlightAware ADS-B
Tue 08:33:41 PM 22.6900 113.3450 158° South 227 261 8,100 107 Climbing FlightAware ADS-B
Tue 08:34:09 PM 22.6630 113.3560 159° South 225 259 8,100  Level FlightAware ADS-B
Tue 08:34:21 PM 22.6510 113.3610 159° South 225 259 8,100 -146 Level FlightAware ADS-B
Tue 08:34:50 PM 22.6240 113.3730 158° South 226 260 8,000 -621 Descending FlightAware ADS-B
Tue 08:35:19 PM 22.5950 113.3850 159° South 227 261 7,500 -931 Descending FlightAware ADS-B
Tue 08:35:48 PM 22.5710 113.4020 147° Southeast 222 255 7,100 -1,050 Descending FlightAware ADS-B
Tue 08:35:59 PM 22.5670 113.4150 108° East 223 257 6,800 -1,231 Descending FlightAware ADS-B
Tue 08:36:27 PM 22.5750 113.4440 73° East 229 264 6,300 -955 Descending FlightAware ADS-B
Tue 08:36:43 PM 22.5840 113.4600 59° Northeast 228 262 6,100 -409 Descending FlightAware ADS-B
Tue 08:37:11 PM 22.6010 113.4860 55° Northeast 229 264 6,000  Descending FlightAware ADS-B
Tue 08:37:41 PM 22.6240 113.5080 41° Northeast 230 265 6,100 -321 Climbing FlightAware ADS-B
Tue 08:38:07 PM 22.6460 113.5300 43° Northeast 231 266 5,700 -1,000 Descending FlightAware ADS-B
Tue 08:38:35 PM 22.6670 113.5510 43° Northeast 231 266 5,200 -840 Descending FlightAware ADS-B
Tue 08:38:57 PM 22.6850 113.5680 41° Northeast 220 253 5,000 -632 Descending FlightAware ADS-B
Tue 08:39:32 PM 22.7100 113.5930 43° Northeast 201 231 4,600 -667 Descending FlightAware ADS-B
Tue 08:40:00 PM 22.7310 113.6080 33° Northeast 186 214 4,300 -621 Descending FlightAware ADS-B
Tue 08:40:30 PM 22.7520 113.6230 33° Northeast 180 207 4,000 -556 Descending FlightAware ADS-B
Tue 08:40:54 PM 22.7690 113.6360 35° Northeast 181 208 3,800 -750 Descending FlightAware ADS-B
Tue 08:41:10 PM 22.7780 113.6470 48° Northeast 181 208 3,500 -1,071 Descending FlightAware ADS-B
Tue 08:41:22 PM 22.7840 113.6560 54° Northeast 179 206 3,300 -938 Descending FlightAware ADS-B
Tue 08:41:42 PM 22.7900 113.6720 68° East 180 207 3,000 -840 Descending FlightAware ADS-B
Tue 08:42:12 PM 22.7820 113.6970 109° East 176 203 2,600 -621 Descending FlightAware ADS-B
Tue 08:42:40 PM 22.7710 113.7180 120° Southeast 171 197 2,400 -409 Descending FlightAware ADS-B
Tue 08:42:56 PM 22.7610 113.7260 144° Southeast 167 192 2,300 -643 Descending FlightAware ADS-B
Tue 08:43:08 PM 22.7530 113.7310 150° Southeast 161 185 2,100 -769 Descending FlightAware ADS-B
Tue 08:43:35 PM 22.7370 113.7400 153° Southeast 142 163 1,800 -682 Descending FlightAware ADS-B
Tue 08:43:52 PM 22.7260 113.7450 157° South 137 158 1,600 -682 Descending FlightAware ADS-B
Tue 08:44:19 PM 22.7120 113.7530 152° Southeast 139 160 1,300 -600 Descending FlightAware ADS-B
Tue 08:44:32 PM 22.7040 113.7580 150° Southeast 139 160 1,200 -600 Descending FlightAware ADS-B
Tue 08:44:59 PM 22.6880 113.7660 155° Southeast 139 160 900 -769 Descending FlightAware ADS-B
Tue 08:45:11 PM 22.6820 113.7700 148° Southeast 138 159 700 -698 Descending FlightAware ADS-B
Tue 08:45:42 PM 22.6630 113.7800 154° Southeast 137 158 400 -581 Descending FlightAware ADS-B
Tue 08:46:11 PM 22.6470 113.7890 153° Southeast 125 144 -828 Descending FlightAware ADS-B
Tue 08:46:30 PM 22.6400 113.7930 152° Southeast 72 83  Level FlightAware ADS-B
Tue 08:46:47 PM 22.6370 113.7950 148° Southeast 37 43  Level FlightAware ADS-B
Tue 08:46:59 PM 22.6350 113.7960 155° Southeast 26 30  Level FlightAware ADS-B
Tue 08:47:24 PM 22.6340 113.7980 118° Southeast 26 30  Level FlightAware ADS-B
Tue 08:49:42 PM 22.6400 113.8070 54° Northeast 12 14  Level FlightAware ADS-B
Tue 08:50:10 PM 22.6410 113.8080 43° Northeast 33 38  Level FlightAware ADS-B
Tue 08:50:30 PM 22.6420 113.8090 43° Northeast 29 33  Level FlightAware ADS-B

Login

Don't have an account? Register now (free) for customized features, flight alerts, and more!